createdAt,value
2022-12-17T00:01:53.520Z,22.84
2022-12-17T00:04:40.032Z,22.87
2022-12-17T00:07:25.944Z,22.86
2022-12-17T00:10:12.032Z,22.86
2022-12-17T00:12:58.506Z,22.84
2022-12-17T00:15:44.868Z,22.83
2022-12-17T00:18:31.965Z,22.84
2022-12-17T00:21:19.754Z,22.84
2022-12-17T00:24:06.496Z,22.82
2022-12-17T00:26:52.565Z,22.84
2022-12-17T00:32:28.172Z,22.80
2022-12-17T00:35:14.216Z,22.82
2022-12-17T00:38:01.116Z,22.80
2022-12-17T00:40:47.684Z,22.84
2022-12-17T00:43:34.159Z,22.84
2022-12-17T00:46:20.232Z,22.83
2022-12-17T00:49:07.642Z,22.86
2022-12-17T00:51:53.850Z,22.85
2022-12-17T00:54:40.040Z,22.83
2022-12-17T00:57:26.324Z,22.85
2022-12-17T01:00:12.566Z,22.84
2022-12-17T01:02:58.776Z,22.84
2022-12-17T01:05:45.632Z,22.82
2022-12-17T01:08:33.751Z,22.82
2022-12-17T01:11:26.743Z,22.83
2022-12-17T01:14:12.828Z,22.86
2022-12-17T01:16:59.087Z,22.84
2022-12-17T01:19:45.243Z,22.83
2022-12-17T01:22:31.322Z,22.84
2022-12-17T01:25:18.940Z,22.84
2022-12-17T01:28:09.909Z,22.86
2022-12-17T01:30:56.946Z,22.85
2022-12-17T01:33:43.603Z,22.85
2022-12-17T01:36:29.637Z,22.83
2022-12-17T01:39:15.718Z,22.83
2022-12-17T01:42:01.911Z,22.82
2022-12-17T01:45:11.120Z,22.83
2022-12-17T01:48:02.814Z,22.87
2022-12-17T01:50:53.547Z,22.88
2022-12-17T01:53:47.935Z,22.87
2022-12-17T01:56:35.441Z,22.85
2022-12-17T01:59:22.727Z,22.87
2022-12-17T02:02:09.476Z,22.85
2022-12-17T02:04:56.182Z,22.85
2022-12-17T02:08:04.273Z,22.87
2022-12-17T02:11:08.695Z,22.86
2022-12-17T02:14:01.302Z,22.85
2022-12-17T02:17:00.971Z,22.85
2022-12-17T02:20:16.863Z,22.84
2022-12-17T02:23:23.245Z,22.83
2022-12-17T02:26:20.561Z,22.84
2022-12-17T02:29:10.577Z,22.84
2022-12-17T02:31:59.743Z,22.84
2022-12-17T02:34:45.976Z,22.85
2022-12-17T02:37:32.669Z,22.83
2022-12-17T02:40:18.645Z,22.83
2022-12-17T02:43:07.870Z,22.84
2022-12-17T02:45:56.630Z,22.84
2022-12-17T02:48:43.446Z,22.84
2022-12-17T02:51:30.526Z,22.86
2022-12-17T02:54:22.123Z,22.84
2022-12-17T02:57:08.176Z,22.86
2022-12-17T02:59:54.253Z,22.85
2022-12-17T03:02:40.226Z,22.86
2022-12-17T03:08:33.598Z,22.86
2022-12-17T03:11:19.537Z,22.85
2022-12-17T03:14:05.477Z,22.84
2022-12-17T03:16:52.161Z,22.81
2022-12-17T03:19:38.314Z,22.84
2022-12-17T03:22:24.606Z,22.83
2022-12-17T03:25:13.556Z,22.81
2022-12-17T03:27:59.738Z,22.83
2022-12-17T03:30:49.204Z,22.82
2022-12-17T03:33:36.108Z,22.82
2022-12-17T03:36:22.478Z,22.83
2022-12-17T03:39:08.493Z,22.81
2022-12-17T03:41:54.518Z,22.83
2022-12-17T03:44:40.703Z,22.81
2022-12-17T03:47:26.662Z,22.85
2022-12-17T03:50:12.678Z,22.84
2022-12-17T03:52:58.735Z,22.82
2022-12-17T03:55:44.785Z,22.80
2022-12-17T03:58:31.257Z,22.79
2022-12-17T04:01:17.565Z,22.78
2022-12-17T04:06:57.352Z,22.80
2022-12-17T04:09:43.615Z,22.81
2022-12-17T04:12:29.808Z,22.81
2022-12-17T04:15:16.268Z,22.78
2022-12-17T04:18:02.781Z,22.78
2022-12-17T04:20:48.815Z,22.74
2022-12-17T04:23:35.662Z,22.76
2022-12-17T04:26:22.335Z,22.75
2022-12-17T04:29:08.500Z,22.74
2022-12-17T04:31:54.491Z,22.71
2022-12-17T04:34:40.733Z,22.74
2022-12-17T04:37:26.847Z,22.74
2022-12-17T04:40:13.025Z,22.76
2022-12-17T04:42:59.108Z,22.78
2022-12-17T04:45:45.144Z,22.77
2022-12-17T04:48:38.845Z,22.75
2022-12-17T04:51:25.451Z,22.75
2022-12-17T04:54:11.716Z,22.79
2022-12-17T04:59:43.797Z,22.80
2022-12-17T05:02:29.904Z,22.80
2022-12-17T05:05:16.352Z,22.79
2022-12-17T05:08:02.820Z,22.82
2022-12-17T05:10:48.833Z,22.81
2022-12-17T05:13:35.427Z,22.81
2022-12-17T05:16:22.144Z,22.81
2022-12-17T05:19:08.333Z,22.79
2022-12-17T05:21:54.650Z,22.82
2022-12-17T05:24:40.739Z,22.84
2022-12-17T05:27:27.283Z,22.87
2022-12-17T05:30:13.329Z,22.88
2022-12-17T05:32:59.534Z,22.84
2022-12-17T05:35:45.700Z,22.84
2022-12-17T05:38:31.903Z,22.86
2022-12-17T05:41:18.721Z,22.85
2022-12-17T05:44:04.743Z,22.85
2022-12-17T05:46:50.970Z,22.83
2022-12-17T05:49:37.029Z,22.83
2022-12-17T05:52:24.830Z,22.83
2022-12-17T05:55:11.313Z,22.84
2022-12-17T05:57:57.500Z,22.86
2022-12-17T06:00:43.771Z,22.85
2022-12-17T06:03:29.950Z,22.85
2022-12-17T06:06:16.428Z,22.83
2022-12-17T06:09:02.739Z,22.87
2022-12-17T06:11:48.738Z,22.86
2022-12-17T06:14:34.649Z,22.86
2022-12-17T06:17:20.713Z,22.88
2022-12-17T06:20:06.713Z,22.89
2022-12-17T06:22:52.764Z,22.91
2022-12-17T06:25:38.976Z,22.90
2022-12-17T06:28:24.982Z,22.92
2022-12-17T06:31:12.621Z,22.92
2022-12-17T06:33:58.963Z,22.91
2022-12-17T06:36:45.206Z,22.93
2022-12-17T06:39:31.666Z,22.92
2022-12-17T06:42:17.828Z,22.93
2022-12-17T06:45:03.746Z,22.93
2022-12-17T06:47:50.064Z,22.94
2022-12-17T06:50:36.431Z,22.94
2022-12-17T06:53:25.026Z,22.96
2022-12-17T06:56:11.510Z,22.97
2022-12-17T06:58:57.725Z,22.97
2022-12-17T07:01:44.089Z,22.98
2022-12-17T07:04:30.689Z,22.99
2022-12-17T07:07:16.987Z,22.95
2022-12-17T07:10:04.435Z,22.94
2022-12-17T07:12:53.091Z,22.91
2022-12-17T07:15:39.307Z,22.91
2022-12-17T07:18:25.764Z,22.91
2022-12-17T07:21:12.604Z,22.93
2022-12-17T07:23:58.811Z,22.89
2022-12-17T07:26:45.260Z,22.89
2022-12-17T07:29:31.620Z,22.89
2022-12-17T07:32:17.912Z,22.88
2022-12-17T07:35:03.978Z,22.87
2022-12-17T07:37:50.327Z,22.87
2022-12-17T07:40:36.533Z,22.86
2022-12-17T07:43:29.780Z,22.86
2022-12-17T07:46:15.893Z,22.85
2022-12-17T07:49:02.332Z,22.83
2022-12-17T07:51:48.565Z,22.84
2022-12-17T07:54:34.648Z,22.83
2022-12-17T07:57:20.753Z,22.82
2022-12-17T08:00:07.035Z,22.82
2022-12-17T08:02:53.258Z,22.82
2022-12-17T08:05:39.789Z,22.83
2022-12-17T08:08:30.289Z,22.82
2022-12-17T08:11:17.417Z,22.82
2022-12-17T08:14:03.517Z,22.81
2022-12-17T08:16:49.767Z,22.81
2022-12-17T08:19:36.167Z,22.80
2022-12-17T08:22:22.344Z,22.81
2022-12-17T08:25:08.686Z,22.81
2022-12-17T08:27:54.653Z,22.81
2022-12-17T08:36:16.857Z,22.79
2022-12-17T08:41:54.482Z,22.79
2022-12-17T08:44:42.273Z,22.80
2022-12-17T08:47:28.394Z,22.81
2022-12-17T08:50:14.719Z,22.78
2022-12-17T08:55:46.640Z,22.78
2022-12-17T08:58:33.032Z,22.78
2022-12-17T09:04:06.259Z,22.77
2022-12-17T09:06:52.249Z,22.76
2022-12-17T09:09:38.742Z,22.76
2022-12-17T09:12:24.828Z,22.77
2022-12-17T09:15:11.175Z,22.76
2022-12-17T09:17:57.161Z,22.75
2022-12-17T09:20:43.700Z,22.75
2022-12-17T09:23:35.138Z,22.76
2022-12-17T09:26:21.855Z,22.75
2022-12-17T09:29:07.775Z,22.77
2022-12-17T09:31:54.071Z,22.76
2022-12-17T09:34:40.731Z,22.76
2022-12-17T09:37:26.616Z,22.78
2022-12-17T09:40:12.777Z,22.77
2022-12-17T09:43:02.127Z,22.77
2022-12-17T09:46:01.471Z,22.78
2022-12-17T09:49:02.111Z,22.79
2022-12-17T09:51:48.843Z,22.77
2022-12-17T09:57:38.511Z,22.77
2022-12-17T10:00:36.269Z,22.76
2022-12-17T10:03:29.806Z,22.78
2022-12-17T10:06:22.787Z,22.76
2022-12-17T10:09:14.274Z,22.75
2022-12-17T10:12:00.259Z,22.77
2022-12-17T10:14:46.619Z,22.75
2022-12-17T10:17:56.569Z,22.75
2022-12-17T10:20:57.078Z,22.74
2022-12-17T10:23:48.101Z,22.75
2022-12-17T10:26:38.253Z,22.73
2022-12-17T10:29:34.372Z,22.74
2022-12-17T10:32:35.765Z,22.74
2022-12-17T10:35:39.408Z,22.75
2022-12-17T10:38:38.602Z,22.75
2022-12-17T10:41:39.319Z,22.72
2022-12-17T10:44:46.740Z,22.73
2022-12-17T10:47:38.523Z,22.73
2022-12-17T10:50:30.279Z,22.72
2022-12-17T10:53:17.368Z,22.73
2022-12-17T10:56:15.308Z,22.72
2022-12-17T10:59:13.751Z,22.74
2022-12-17T11:02:00.701Z,22.72
2022-12-17T11:04:49.917Z,22.69
2022-12-17T11:07:44.263Z,22.72
2022-12-17T11:10:37.058Z,22.70
2022-12-17T11:13:59.032Z,22.69
2022-12-17T11:16:51.120Z,22.69
2022-12-17T11:20:07.465Z,22.69
2022-12-17T11:22:59.715Z,22.71
2022-12-17T11:26:00.361Z,22.70
2022-12-17T11:28:48.649Z,22.68
2022-12-17T11:31:53.563Z,22.68
2022-12-17T11:35:02.179Z,22.72
2022-12-17T11:38:24.115Z,22.72
2022-12-17T11:41:39.710Z,22.74
2022-12-17T11:44:34.946Z,22.74
2022-12-17T11:48:25.836Z,22.73
2022-12-17T11:51:24.048Z,22.72
2022-12-17T11:54:48.712Z,22.72
2022-12-17T11:57:49.638Z,22.69
2022-12-17T12:00:40.702Z,22.68
2022-12-17T12:03:42.136Z,22.68
2022-12-17T12:07:20.173Z,22.67
2022-12-17T12:10:38.862Z,22.65
2022-12-17T12:13:49.879Z,22.65
2022-12-17T12:16:52.541Z,22.64
2022-12-17T12:19:46.977Z,22.63
2022-12-17T12:22:44.273Z,22.61
2022-12-17T12:25:49.418Z,22.63
2022-12-17T12:28:47.794Z,22.61
2022-12-17T12:31:56.913Z,22.62
2022-12-17T12:34:53.463Z,22.60
2022-12-17T12:37:40.071Z,22.59
2022-12-17T12:40:50.261Z,22.59
2022-12-17T12:43:46.351Z,22.58
2022-12-17T12:46:57.089Z,22.59
2022-12-17T12:49:49.446Z,22.56
2022-12-17T12:52:46.420Z,22.56
2022-12-17T12:55:32.408Z,22.56
2022-12-17T12:58:42.224Z,22.57
2022-12-17T13:01:28.405Z,22.58
2022-12-17T13:04:16.832Z,22.57
2022-12-17T13:06:55.655Z,22.58
2022-12-17T13:09:34.130Z,22.57
2022-12-17T13:12:02.073Z,22.55
2022-12-17T13:14:35.337Z,22.56
2022-12-17T13:17:20.991Z,22.55
2022-12-17T13:19:57.662Z,22.54
2022-12-17T13:22:25.050Z,22.52
2022-12-17T13:24:55.111Z,22.55
2022-12-17T13:27:36.441Z,22.54
2022-12-17T13:30:18.767Z,22.53
2022-12-17T13:32:55.003Z,22.53
2022-12-17T13:35:40.839Z,22.51
2022-12-17T13:38:34.976Z,22.52
2022-12-17T13:41:12.075Z,22.52
2022-12-17T13:44:20.369Z,22.52
2022-12-17T13:46:50.114Z,22.50
2022-12-17T13:49:22.336Z,22.51
2022-12-17T13:52:08.023Z,22.51
2022-12-17T13:54:39.027Z,22.50
2022-12-17T13:57:25.765Z,22.50
2022-12-17T13:59:58.950Z,22.46
2022-12-17T14:02:32.176Z,22.48
2022-12-17T14:05:07.709Z,22.47
2022-12-17T14:07:39.009Z,22.49
2022-12-17T14:10:15.668Z,22.48
2022-12-17T14:12:43.561Z,22.49
2022-12-17T14:15:31.969Z,22.50
2022-12-17T14:18:00.718Z,22.48
2022-12-17T14:20:34.454Z,22.45
2022-12-17T14:23:10.696Z,22.46
2022-12-17T14:25:44.132Z,22.49
2022-12-17T14:28:25.631Z,22.45
2022-12-17T14:31:28.225Z,22.48
2022-12-17T14:34:08.144Z,22.45
2022-12-17T14:36:38.647Z,22.45
2022-12-17T14:39:19.136Z,22.46
2022-12-17T14:42:05.775Z,22.45
2022-12-17T14:44:33.358Z,22.44
2022-12-17T14:47:34.228Z,22.46
2022-12-17T14:50:10.472Z,22.44
2022-12-17T14:52:40.349Z,22.45
2022-12-17T14:55:29.296Z,22.42
2022-12-17T14:58:29.500Z,22.44
2022-12-17T15:01:07.153Z,22.42
2022-12-17T15:03:40.323Z,22.42
2022-12-17T15:06:10.369Z,22.44
2022-12-17T15:08:43.119Z,22.43
2022-12-17T15:11:22.034Z,22.42
2022-12-17T15:13:54.604Z,22.43
2022-12-17T15:16:24.270Z,22.38
2022-12-17T15:18:51.801Z,22.41
2022-12-17T15:21:19.994Z,22.40
2022-12-17T15:23:47.888Z,22.37
2022-12-17T15:26:15.559Z,22.39
2022-12-17T15:28:43.751Z,22.39
2022-12-17T15:31:13.652Z,22.38
2022-12-17T15:33:42.153Z,22.37
2022-12-17T15:36:12.019Z,22.38
2022-12-17T15:38:40.225Z,22.38
2022-12-17T15:41:26.588Z,22.39
2022-12-17T15:43:54.065Z,22.38
2022-12-17T15:46:21.735Z,22.37
2022-12-17T15:48:50.588Z,22.38
2022-12-17T15:51:21.165Z,22.34
2022-12-17T15:53:49.830Z,22.36
2022-12-17T15:56:21.604Z,22.35
2022-12-17T15:58:49.418Z,22.34
2022-12-17T16:01:18.165Z,22.35
2022-12-17T16:03:45.954Z,22.35
2022-12-17T16:06:13.660Z,22.37
2022-12-17T16:08:41.311Z,22.34
2022-12-17T16:11:10.079Z,22.37
2022-12-17T16:13:38.339Z,22.33
2022-12-17T16:16:06.839Z,22.36
2022-12-17T16:18:36.204Z,22.34
2022-12-17T16:21:05.900Z,22.34
2022-12-17T16:23:33.376Z,22.36
2022-12-17T16:26:03.369Z,22.35
2022-12-17T16:28:31.283Z,22.35
2022-12-17T16:31:11.301Z,22.35
2022-12-17T16:33:41.914Z,22.33
2022-12-17T16:36:13.495Z,22.33
2022-12-17T16:38:52.108Z,22.34
2022-12-17T16:41:20.936Z,22.34
2022-12-17T16:43:48.661Z,22.34
2022-12-17T16:46:35.733Z,22.34
2022-12-17T16:49:09.392Z,22.34
2022-12-17T16:51:36.975Z,22.31
2022-12-17T16:54:08.552Z,22.32
2022-12-17T16:56:39.976Z,22.34
2022-12-17T16:59:08.848Z,22.33
2022-12-17T17:01:38.478Z,22.33
2022-12-17T17:04:07.999Z,22.34
2022-12-17T17:06:40.101Z,22.33
2022-12-17T17:09:08.311Z,22.34
2022-12-17T17:11:35.747Z,22.34
2022-12-17T17:14:04.349Z,22.34
2022-12-17T17:16:34.189Z,22.36
2022-12-17T17:19:02.513Z,22.35
2022-12-17T17:21:38.811Z,22.36
2022-12-17T17:24:15.497Z,22.36
2022-12-17T17:26:46.492Z,22.36
2022-12-17T17:29:13.909Z,22.35
2022-12-17T17:34:28.945Z,22.38
2022-12-17T17:36:56.538Z,22.37
2022-12-17T17:39:24.002Z,22.38
2022-12-17T17:41:52.023Z,22.38
2022-12-17T17:44:19.486Z,22.39
2022-12-17T17:46:46.989Z,22.39
2022-12-17T17:49:14.439Z,22.39
2022-12-17T17:54:31.489Z,22.39
2022-12-17T17:56:58.951Z,22.39
2022-12-17T17:59:32.935Z,22.39
2022-12-17T18:02:02.652Z,22.39
2022-12-17T18:04:30.985Z,22.39
2022-12-17T18:09:46.474Z,22.41
2022-12-17T18:12:32.624Z,22.38
2022-12-17T18:15:17.313Z,22.37
2022-12-17T18:17:49.737Z,22.38
2022-12-17T18:20:18.237Z,22.38
2022-12-17T18:22:46.792Z,22.36
2022-12-17T18:25:16.678Z,22.41
2022-12-17T18:27:44.495Z,22.39
2022-12-17T18:30:12.777Z,22.40
2022-12-17T18:32:40.225Z,22.38
2022-12-17T18:35:08.360Z,22.38
2022-12-17T18:37:35.942Z,22.37
2022-12-17T18:40:05.689Z,22.39
2022-12-17T18:42:52.152Z,22.39
2022-12-17T18:45:19.638Z,22.38
2022-12-17T18:47:47.282Z,22.39
2022-12-17T18:50:14.694Z,22.36
2022-12-17T18:52:44.024Z,22.38
2022-12-17T18:55:12.131Z,22.37
2022-12-17T18:57:39.794Z,22.38
2022-12-17T19:00:07.880Z,22.38
2022-12-17T19:02:35.378Z,22.37
2022-12-17T19:05:02.950Z,22.37
2022-12-17T19:07:30.518Z,22.36
2022-12-17T19:09:57.958Z,22.37
2022-12-17T19:12:25.405Z,22.37
2022-12-17T19:14:52.928Z,22.37
2022-12-17T19:17:20.707Z,22.36
2022-12-17T19:19:48.478Z,22.37
2022-12-17T19:22:15.885Z,22.37
2022-12-17T19:24:43.505Z,22.36
2022-12-17T19:27:11.055Z,22.36
2022-12-17T19:29:38.520Z,22.38
2022-12-17T19:32:06.126Z,22.36
2022-12-17T19:34:35.089Z,22.36
2022-12-17T19:37:03.171Z,22.36
2022-12-17T19:39:30.577Z,22.35
2022-12-17T19:41:58.041Z,22.35
2022-12-17T19:44:25.520Z,22.35
2022-12-17T19:46:52.981Z,22.33
2022-12-17T19:49:20.431Z,22.36
2022-12-17T19:51:47.942Z,22.36
2022-12-17T19:54:15.656Z,22.33
2022-12-17T19:56:44.793Z,22.37
2022-12-17T19:59:13.511Z,22.36
2022-12-17T20:01:45.926Z,22.37
2022-12-17T20:04:15.567Z,22.34
2022-12-17T20:06:44.633Z,22.33
2022-12-17T20:09:12.792Z,22.33
2022-12-17T20:11:40.677Z,22.31
2022-12-17T20:14:23.976Z,22.32
2022-12-17T20:16:55.141Z,22.34
2022-12-17T20:19:25.462Z,22.36
2022-12-17T20:21:53.791Z,22.35
2022-12-17T20:24:27.194Z,22.36
2022-12-17T20:26:59.160Z,22.34
2022-12-17T20:29:27.423Z,22.34
2022-12-17T20:31:55.973Z,22.34
2022-12-17T20:34:24.452Z,22.34
2022-12-17T20:36:53.064Z,22.35
2022-12-17T20:39:26.155Z,22.35
2022-12-17T20:41:55.112Z,22.34
2022-12-17T20:44:22.705Z,22.34
2022-12-17T20:46:50.132Z,22.32
2022-12-17T20:49:17.570Z,22.31
2022-12-17T20:51:44.988Z,22.31
2022-12-17T20:54:12.485Z,22.34
2022-12-17T20:56:40.788Z,22.34
2022-12-17T20:59:13.235Z,22.34
2022-12-17T21:01:40.884Z,22.33
2022-12-17T21:04:08.687Z,22.33
2022-12-17T21:06:41.352Z,22.33
2022-12-17T21:09:09.224Z,22.33
2022-12-17T21:11:38.193Z,22.33
2022-12-17T21:14:07.769Z,22.31
2022-12-17T21:16:37.004Z,22.32
2022-12-17T21:19:06.794Z,22.32
2022-12-17T21:21:37.223Z,22.35
2022-12-17T21:24:06.151Z,22.32
2022-12-17T21:26:36.895Z,22.30
2022-12-17T21:29:06.274Z,22.31
2022-12-17T21:31:38.069Z,22.28
2022-12-17T21:34:07.413Z,22.29
2022-12-17T21:36:35.559Z,22.28
2022-12-17T21:39:08.922Z,22.29
2022-12-17T21:41:42.580Z,22.30
2022-12-17T21:44:15.258Z,22.30
2022-12-17T21:46:50.085Z,22.30
2022-12-17T21:49:18.297Z,22.30
2022-12-17T21:51:52.826Z,22.29
2022-12-17T21:54:20.397Z,22.26
2022-12-17T21:56:48.560Z,22.28
2022-12-17T21:59:16.278Z,22.26
2022-12-17T22:01:44.128Z,22.29
2022-12-17T22:04:11.846Z,22.26
2022-12-17T22:06:40.634Z,22.27
2022-12-17T22:09:30.080Z,22.30
2022-12-17T22:12:23.556Z,22.29
2022-12-17T22:14:52.442Z,22.28
2022-12-17T22:17:20.448Z,22.28
2022-12-17T22:19:48.134Z,22.25
2022-12-17T22:22:15.676Z,22.26
2022-12-17T22:24:43.172Z,22.23
2022-12-17T22:27:10.855Z,22.23
2022-12-17T22:29:57.048Z,22.27
2022-12-17T22:32:43.486Z,22.25
2022-12-17T22:36:43.659Z,22.26
2022-12-17T22:42:29.302Z,22.24
2022-12-17T22:44:32.116Z,22.23
2022-12-17T22:44:46.621Z,22.25
2022-12-17T22:46:22.837Z,22.24
2022-12-17T22:48:50.319Z,22.22
2022-12-17T22:51:26.586Z,22.20
2022-12-17T22:53:59.825Z,22.23
2022-12-17T22:56:38.854Z,22.23
2022-12-17T22:59:16.877Z,22.23
2022-12-17T23:01:45.089Z,22.22
2022-12-17T23:04:14.755Z,22.25
2022-12-17T23:06:45.353Z,22.24
2022-12-17T23:09:14.312Z,22.23
2022-12-17T23:11:41.955Z,22.24
2022-12-17T23:14:09.698Z,22.25
2022-12-17T23:16:41.055Z,22.24
2022-12-17T23:19:09.132Z,22.23
2022-12-17T23:21:37.941Z,22.23
2022-12-17T23:24:06.508Z,22.21
2022-12-17T23:26:36.964Z,22.26
2022-12-17T23:29:07.371Z,22.28
2022-12-17T23:31:38.208Z,22.31
2022-12-17T23:34:06.000Z,22.31
2022-12-17T23:36:33.575Z,22.34
2022-12-17T23:39:01.218Z,22.33
2022-12-17T23:41:30.219Z,22.36
2022-12-17T23:43:58.727Z,22.35
2022-12-17T23:46:29.087Z,22.35
2022-12-17T23:48:56.749Z,22.35
2022-12-17T23:51:26.230Z,22.37
2022-12-17T23:53:53.817Z,22.38
2022-12-17T23:56:23.912Z,22.40
2022-12-17T23:59:00.909Z,22.40
